Time;durP1;ratioP1;P1;durP2;ratioP2;P2;SDS_P1;SDS_P2;PMS_P1;PMS_P2;Temp;Humidity;BMP_temperature;BMP_pressure;BME280_temperature;BME280_humidity;BME280_pressure;Samples;Min_cycle;Max_cycle;Signal;HPM_P1;HPM_P2
2023/10/13 00:01:04;;;;;;;1999.90;999.90;;;18.50;99.90;;;;;;4957302;29;20058;-72
2023/10/13 00:03:31;;;;;;;1999.90;999.90;;;18.50;99.90;;;;;;4957368;29;20039;-73
2023/10/13 00:06:00;;;;;;;1999.90;999.90;;;18.40;99.90;;;;;;4957444;29;20027;-79
2023/10/13 00:08:26;;;;;;;1999.90;999.90;;;18.40;99.90;;;;;;4954349;29;20118;-77
2023/10/13 00:10:51;;;;;;;1999.90;999.90;;;18.30;99.90;;;;;;4937795;29;20071;-79
2023/10/13 00:13:18;;;;;;;1999.90;999.90;;;18.30;99.90;;;;;;4931390;29;20059;-79
2023/10/13 00:15:57;;;;;;;1999.90;999.90;;;18.20;99.90;;;;;;4957067;29;20026;-72
2023/10/13 00:18:34;;;;;;;1999.90;999.90;;;18.10;99.90;;;;;;4956877;29;20475;-72
2023/10/13 00:21:00;;;;;;;1999.90;999.90;;;18.10;99.90;;;;;;4956991;29;20023;-79
2023/10/13 00:23:32;;;;;;;1999.90;999.90;;;18.10;99.90;;;;;;4956878;29;20501;-72
2023/10/13 00:25:59;;;;;;;1999.90;999.90;;;18.10;99.90;;;;;;4939776;29;20467;-79
2023/10/13 00:28:35;;;;;;;1999.90;999.90;;;18.10;99.90;;;;;;4939216;29;20031;-73
2023/10/13 00:31:10;;;;;;;1999.90;999.90;;;18.00;99.90;;;;;;4948217;29;20035;-72
2023/10/13 00:33:41;;;;;;;1999.90;999.90;;;18.00;99.90;;;;;;4937626;29;20028;-79
2023/10/13 00:36:08;;;;;;;1999.90;999.90;;;18.00;99.90;;;;;;4937609;29;20024;-79
2023/10/13 00:38:35;;;;;;;1999.90;999.90;;;17.90;99.90;;;;;;4953891;29;20027;-72
2023/10/13 00:41:14;;;;;;;1999.90;999.90;;;17.90;99.90;;;;;;4957256;29;20110;-73
2023/10/13 00:43:45;;;;;;;1999.90;999.90;;;17.90;99.90;;;;;;4956965;29;20031;-72
2023/10/13 00:46:13;;;;;;;1999.90;999.90;;;17.90;99.90;;;;;;4939596;29;20059;-79
2023/10/13 00:48:43;;;;;;;1999.90;999.90;;;17.80;99.90;;;;;;4937256;29;20495;-80
2023/10/13 00:53:56;;;;;;;1999.90;999.90;;;17.70;99.90;;;;;;4936456;29;20034;-72
2023/10/13 00:56:27;;;;;;;1999.90;999.90;;;17.70;99.90;;;;;;4937375;29;20075;-72
2023/10/13 00:58:54;;;;;;;1999.90;999.90;;;17.70;99.90;;;;;;4937362;29;20030;-79
2023/10/13 01:01:27;;;;;;;1999.90;999.90;;;17.70;99.90;;;;;;4936536;29;20027;-79
2023/10/13 01:03:55;;;;;;;1999.90;999.90;;;17.60;99.90;;;;;;4937159;29;20031;-79
2023/10/13 01:06:25;;;;;;;1999.90;999.90;;;17.60;99.90;;;;;;4919946;29;20118;-72
2023/10/13 01:09:17;;;;;;;1999.90;999.90;;;17.60;99.90;;;;;;4913578;29;20442;-72
2023/10/13 01:11:52;;;;;;;1999.90;999.90;;;17.60;99.90;;;;;;4910298;29;20495;-72
2023/10/13 01:14:20;;;;;;;1999.90;999.90;;;17.50;99.90;;;;;;4897772;29;20088;-79
2023/10/13 01:16:47;;;;;;;1999.90;999.90;;;17.50;99.90;;;;;;4899081;29;20021;-79
2023/10/13 01:19:18;;;;;;;1999.90;999.90;;;17.50;99.90;;;;;;4899275;29;20059;-72
2023/10/13 01:21:44;;;;;;;1999.90;999.90;;;17.50;99.90;;;;;;4898892;29;20036;-72
2023/10/13 01:24:11;;;;;;;1999.90;999.90;;;17.50;99.90;;;;;;4899105;29;20028;-79
2023/10/13 01:26:41;;;;;;;1999.90;999.90;;;17.60;99.90;;;;;;4898888;29;20484;-79
2023/10/13 01:29:13;;;;;;;1999.90;999.90;;;17.60;99.90;;;;;;4903411;29;20621;-72
2023/10/13 01:31:46;;;;;;;1999.90;999.90;;;17.60;99.90;;;;;;4917525;29;20112;-79
2023/10/13 01:34:12;;;;;;;;;;;17.60;99.90;;;;;;4916722;29;20643;-72
2023/10/13 01:36:40;;;;;;;;;;;17.60;99.90;;;;;;4916228;29;20330;-72
2023/10/13 01:39:05;;;;;;;;;;;17.50;99.90;;;;;;4917594;29;20001;-79
2023/10/13 01:41:31;;;;;;;;;;;17.50;99.90;;;;;;4918178;29;19993;-79
2023/10/13 01:43:57;;;;;;;;;;;17.50;99.90;;;;;;4918138;29;19994;-79
2023/10/13 01:46:22;;;;;;;;;;;17.50;99.90;;;;;;4955472;29;20468;-72
2023/10/13 01:48:48;;;;;;;;;;;17.50;99.90;;;;;;4955817;29;19907;-72
2023/10/13 01:51:13;;;;;;;;;;;17.40;99.90;;;;;;4955610;29;20049;-79
2023/10/13 01:53:39;;;;;;;;;;;17.50;99.90;;;;;;4955757;29;19907;-72
2023/10/13 01:56:09;;;;;;;;;;;17.50;99.90;;;;;;4956092;29;19906;-79
2023/10/13 01:58:41;;;;;;;;;;;17.60;99.90;;;;;;4955705;28;19906;-72
2023/10/13 02:01:07;;;;;;;;;;;17.60;99.90;;;;;;4955601;29;19911;-72
2023/10/13 02:03:33;;;;;;;;;;;17.50;99.90;;;;;;4955744;29;19906;-79
2023/10/13 02:06:04;;;;;;;;;;;17.50;99.90;;;;;;4955703;29;19907;-79
2023/10/13 02:08:30;;;;;;;;;;;17.50;99.90;;;;;;4951681;29;19906;-79
2023/10/13 02:10:56;;;;;;;;;;;17.50;99.90;;;;;;4934626;29;20293;-72
2023/10/13 02:13:24;;;;;;;;;;;17.50;99.90;;;;;;4917406;29;20400;-72
2023/10/13 02:15:52;;;;;;;;;;;17.50;99.90;;;;;;4917190;29;20423;-79
2023/10/13 02:18:27;;;;;;;;;;;17.50;99.90;;;;;;4917655;29;19934;-79
2023/10/13 02:20:56;;;;;;;;;;;17.50;99.90;;;;;;4917445;29;20358;-72
2023/10/13 02:23:22;;;;;;;;;;;17.50;99.90;;;;;;4917137;29;19915;-79
2023/10/13 02:25:52;;;;;;;;;;;17.60;99.90;;;;;;4917220;29;19907;-72
2023/10/13 02:28:21;;;;;;;;;;;17.60;99.90;;;;;;4917158;29;20382;-72
2023/10/13 02:30:50;;;;;;;;;;;17.60;99.90;;;;;;4946061;29;19922;-79
2023/10/13 02:33:29;;;;;;;;;;;17.60;99.90;;;;;;4936361;29;19910;-79
2023/10/13 02:36:05;;;;;;;;;;;17.60;99.90;;;;;;4936231;29;19907;-79
2023/10/13 02:41:25;;;;;;;;;;;17.60;99.90;;;;;;4936291;29;19907;-72
2023/10/13 02:43:52;;;;;;;;;;;17.60;99.90;;;;;;4936281;29;19970;-79
2023/10/13 02:46:21;;;;;;;;;;;17.80;99.90;;;;;;4916437;29;20031;-79
2023/10/13 02:48:52;;;;;;;;;;;17.90;99.90;;;;;;4915675;29;19954;-73
2023/10/13 02:51:18;;;;;;;;;;;18.10;99.90;;;;;;4916704;29;19911;-73
2023/10/13 02:53:52;;;;;;;;;;;18.20;99.90;;;;;;4916870;29;19914;-79
2023/10/13 02:56:20;;;;;;;;;;;18.20;99.90;;;;;;4915716;29;19907;-79
2023/10/13 02:58:53;;;;;;;;;;;18.20;99.90;;;;;;4916973;29;19907;-79
2023/10/13 03:01:27;;;;;;;;;;;18.10;99.90;;;;;;4905173;29;19907;-79
2023/10/13 03:03:58;;;;;;;;;;;18.20;99.90;;;;;;4899720;29;19911;-73
2023/10/13 03:06:31;;;;;;;;;;;18.10;99.90;;;;;;4916895;29;19907;-73
2023/10/13 03:09:13;;;;;;;;;;;18.20;99.90;;;;;;4915558;29;19915;-79
2023/10/13 03:11:42;;;;;;;;;;;18.20;99.90;;;;;;4912543;29;19917;-79
2023/10/13 03:14:08;;;;;;;;;;;18.30;99.90;;;;;;4901787;29;19944;-72
2023/10/13 03:16:34;;;;;;;;;;;18.30;99.90;;;;;;4900648;29;20371;-72
2023/10/13 03:19:00;;;;;;;;;;;18.30;99.90;;;;;;4901414;29;19914;-73
2023/10/13 03:21:29;;;;;;;;;;;18.20;99.90;;;;;;4900475;29;19908;-79
2023/10/13 03:23:56;;;;;;;;;;;18.20;99.90;;;;;;4901556;29;19912;-79
2023/10/13 03:26:21;;;;;;;;;;;18.20;99.90;;;;;;4901696;29;19912;-79
2023/10/13 03:28:52;;;;;;;;;;;18.20;99.90;;;;;;4903528;29;20471;-73
2023/10/13 03:31:18;;;;;;;;;;;18.20;99.90;;;;;;4919933;29;19915;-73
2023/10/13 03:33:46;;;;;;;;;;;18.20;99.90;;;;;;4920083;29;19907;-72
2023/10/13 03:36:34;;;;;;;;;;;18.20;99.90;;;;;;4920261;29;19918;-79
2023/10/13 03:38:57;;;;;;;;;;;18.20;99.90;;;;;;4920256;29;19954;-80
2023/10/13 03:41:30;;;;;;;;;;;18.10;99.90;;;;;;4920970;29;19918;-79
2023/10/13 03:44:07;;;;;;;;;;;18.10;99.90;;;;;;4920295;29;20370;-73
2023/10/13 03:46:36;;;;;;;;;;;18.10;99.90;;;;;;4958414;29;19973;-80
2023/10/13 03:49:04;;;;;;;;;;;18.00;99.90;;;;;;4958705;29;19910;-79
2023/10/13 03:51:33;;;;;;;;;;;18.00;99.90;;;;;;4958403;29;20342;-79
2023/10/13 03:53:59;;;;;;;;;;;17.90;99.90;;;;;;4957222;29;19918;-79
2023/10/13 03:56:38;;;;;;;;;;;17.90;99.90;;;;;;4958220;29;19907;-73
2023/10/13 03:59:06;;;;;;;;;;;17.90;99.90;;;;;;4957269;29;19915;-73
2023/10/13 04:01:45;;;;;;;;;;;17.80;99.90;;;;;;4957394;29;19947;-79
2023/10/13 04:04:12;;;;;;;;;;;17.80;99.90;;;;;;4940465;29;20301;-79
2023/10/13 04:17:15;;;;;;;;;;;17.70;99.90;;;;;;4950720;29;20014;-79
2023/10/13 04:23:17;;;;;;;;;;;17.70;99.90;;;;;;4956628;28;20420;-72
2023/10/13 04:33:44;;;;;;;;;;;17.60;99.90;;;;;;4957319;29;19910;-73
2023/10/13 04:36:22;;;;;;;;;;;17.60;99.90;;;;;;4940043;29;19913;-72
2023/10/13 04:41:42;;;;;;;;;;;17.60;99.90;;;;;;4938211;29;19961;-79
2023/10/13 04:49:28;;;;;;;;;;;17.70;99.90;;;;;;4919069;29;20002;-73
2023/10/13 04:57:33;;;;;;;;;;;17.60;99.90;;;;;;4917576;29;20001;-79
2023/10/13 06:29:33;;;;;;;;;;;17.40;99.90;;;;;;4916093;29;19926;-78
2023/10/13 06:32:01;;;;;;;;;;;17.50;99.90;;;;;;4913764;29;19919;-73
2023/10/13 06:34:45;;;;;;;;;;;17.50;99.90;;;;;;4906051;29;19969;-72
2023/10/13 06:37:24;;;;;;;;;;;17.50;99.90;;;;;;4907410;29;19967;-79
2023/10/13 06:39:50;;;;;;;;;;;17.50;99.90;;;;;;4921304;29;19962;-73
2023/10/13 06:42:16;;;;;;;;;;;17.50;99.90;;;;;;4924293;29;19907;-78
2023/10/13 06:44:45;;;;;;;;;;;17.60;99.90;;;;;;4908328;29;19926;-73
2023/10/13 06:47:11;;;;;;;;;;;17.60;99.90;;;;;;4911700;29;19938;-73
2023/10/13 06:49:39;;;;;;;;;;;17.60;99.90;;;;;;4902985;29;19915;-78
2023/10/13 06:52:07;;;;;;;;;;;17.60;99.90;;;;;;4902439;29;19919;-78
2023/10/13 06:54:34;;;;;;;;;;;17.70;99.90;;;;;;4908719;29;20358;-79
2023/10/13 06:57:03;;;;;;;;;;;17.80;99.90;;;;;;4889704;29;19911;-73
2023/10/13 06:59:36;;;;;;;;;;;17.90;99.90;;;;;;4913192;29;19918;-73
2023/10/13 07:02:08;;;;;;;;;;;17.90;99.90;;;;;;4911160;29;19962;-79
2023/10/13 07:04:34;;;;;;;;;;;18.00;99.90;;;;;;4913669;29;19919;-79
2023/10/13 07:07:05;;;;;;;;;;;18.00;99.90;;;;;;4898444;29;20480;-79
2023/10/13 07:12:03;;;;;;;;;;;18.10;99.90;;;;;;4899463;29;19915;-73
2023/10/13 07:14:32;;;;;;;;;;;18.10;99.90;;;;;;4903011;29;19911;-79
2023/10/13 07:17:00;;;;;;;;;;;18.10;99.90;;;;;;4906619;29;19918;-79
2023/10/13 07:19:29;;;;;;;;;;;18.20;99.90;;;;;;4914970;29;19955;-72
2023/10/13 07:22:18;;;;;;;;;;;18.20;99.90;;;;;;4899635;29;19967;-78
2023/10/13 07:24:50;;;;;;;;;;;18.30;99.90;;;;;;4897925;29;20278;-73
2023/10/13 07:27:22;;;;;;;;;;;18.40;99.90;;;;;;4898657;29;19959;-72
2023/10/13 07:29:56;;;;;;;;;;;18.50;99.90;;;;;;4914194;29;20414;-78
2023/10/13 07:32:26;;;;;;;;;;;18.50;99.90;;;;;;4913988;29;19915;-78
2023/10/13 07:34:57;;;;;;;;;;;18.60;99.90;;;;;;4909032;29;20350;-79
2023/10/13 07:37:28;;;;;;;;;;;19.40;99.90;;;;;;4908187;29;20291;-72
2023/10/13 07:39:57;;;;;;;;;;;19.30;99.90;;;;;;4914557;29;19915;-72
2023/10/13 07:42:25;;;;;;;;;;;19.10;99.90;;;;;;4914754;29;19911;-78
2023/10/13 07:44:55;;;;;;;;;;;19.00;99.90;;;;;;4914594;29;19919;-72
2023/10/13 07:47:24;;;;;;;;;;;19.00;99.90;;;;;;4896825;29;19919;-73
2023/10/13 07:49:50;;;;;;;;;;;19.10;99.90;;;;;;4914004;29;19911;-74
2023/10/13 07:54:49;;;;;;;;;;;19.20;99.90;;;;;;4909800;29;20422;-79
2023/10/13 07:57:14;;;;;;;;;;;19.30;99.90;;;;;;4915191;29;19918;-79
2023/10/13 07:59:47;;;;;;;;;;;19.30;99.90;;;;;;4917477;29;20330;-79
2023/10/13 08:02:15;;;;;;;;;;;19.30;99.90;;;;;;4916895;29;19969;-72
2023/10/13 08:04:40;;;;;;;;;;;19.20;99.90;;;;;;4913817;29;19918;-79
2023/10/13 08:07:13;;;;;;;;;;;19.20;99.90;;;;;;4917735;29;19911;-79
2023/10/13 08:09:51;;;;;;;;;;;19.20;99.90;;;;;;4914158;29;20367;-79
2023/10/13 08:12:21;;;;;;;;;;;19.30;99.90;;;;;;4905852;29;19915;-79
2023/10/13 08:14:47;;;;;;;;;;;19.30;99.90;;;;;;4898448;29;19965;-79
2023/10/13 08:17:13;;;;;;;;;;;19.30;99.90;;;;;;4904029;29;19911;-79
2023/10/13 08:19:44;;;;;;;;;;;19.30;99.90;;;;;;4906023;29;19907;-78
2023/10/13 08:35:22;;;;;;;;;;;19.50;99.90;;;;;;4914756;29;19915;-72
2023/10/13 08:37:59;;;;;;;;;;;19.60;99.90;;;;;;4915516;29;19910;-78
2023/10/13 08:43:11;;;;;;;;;;;19.80;99.90;;;;;;4917147;29;19954;-72
2023/10/13 08:53:44;;;;;;;;;;;19.90;99.90;;;;;;4909370;29;20014;-79
2023/10/13 08:56:14;;;;;;;;;;;19.90;99.90;;;;;;4912497;29;19915;-73
2023/10/13 09:13:00;;;;;;;;;;;20.20;99.90;;;;;;4911336;29;20366;-79
2023/10/13 09:17:47;;;;;;;;;;;20.40;99.90;;;;;;4916998;29;19911;-78
2023/10/13 09:20:24;;;;;;;;;;;20.40;99.90;;;;;;4889602;29;19916;-72
2023/10/13 09:25:34;;;;;;;;;;;20.60;99.90;;;;;;4915097;29;19919;-80
2023/10/13 09:28:00;;;;;;;;;;;20.60;99.90;;;;;;4899158;29;19998;-79
2023/10/13 09:30:28;;;;;;;;;;;20.40;99.90;;;;;;4914049;29;19915;-72
2023/10/13 09:33:15;;;;;;;;;;;20.40;99.90;;;;;;4918949;29;20331;-73
2023/10/13 09:35:43;;;;;;;;;;;20.40;99.90;;;;;;4914471;29;19998;-78
2023/10/13 09:38:11;;;;;;;;;;;20.50;99.90;;;;;;4913690;29;19925;-79
2023/10/13 09:40:46;;;;;;;;;;;20.60;99.90;;;;;;4914053;29;20327;-79
2023/10/13 09:43:21;;;;;;;;;;;20.60;99.90;;;;;;4925217;29;19915;-73
2023/10/13 09:46:01;;;;;;;;;;;20.70;99.90;;;;;;4917310;29;19923;-78
2023/10/13 09:48:35;;;;;;;;;;;20.80;99.90;;;;;;4912634;29;19911;-78
2023/10/13 09:51:03;;;;;;;;;;;20.90;99.90;;;;;;4913980;29;20368;-79
2023/10/13 09:53:30;;;;;;;;;;;21.10;99.90;;;;;;4893895;29;19916;-79
2023/10/13 09:56:11;;;;;;;;;;;21.10;99.90;;;;;;4913724;29;20026;-73
2023/10/13 09:58:37;;;;;;;;;;;21.20;99.90;;;;;;4911254;29;19922;-79
2023/10/13 10:01:10;;;;;;;;;;;21.30;99.90;;;;;;4914630;29;19915;-73
2023/10/13 10:03:52;;;;;;;;;;;21.40;99.90;;;;;;4915290;29;19915;-79
2023/10/13 10:06:30;;;;;;;;;;;21.50;99.90;;;;;;4913830;29;19959;-79
2023/10/13 10:09:12;;;;;;;;;;;21.80;99.90;;;;;;4886054;29;19907;-79
2023/10/13 10:11:47;;;;;;;;;;;22.00;99.90;;;;;;4907515;29;19915;-73
2023/10/13 10:14:41;;;;;;;;;;;22.00;99.90;;;;;;4921052;29;20414;-73
2023/10/13 10:17:07;;;;;;;;;;;22.10;99.90;;;;;;4869006;29;19916;-79
2023/10/13 10:19:36;;;;;;;;;;;22.30;99.90;;;;;;4896730;29;19912;-79
2023/10/13 10:22:10;;;;;;;;;;;22.30;99.90;;;;;;4896707;29;19947;-72
2023/10/13 10:24:36;;;;;;;;;;;22.30;99.90;;;;;;4896923;29;20017;-79
2023/10/13 10:27:04;;;;;;;;;;;22.40;99.90;;;;;;4900162;29;19998;-72
2023/10/13 10:29:32;;;;;;;;;;;22.40;99.90;;;;;;4914081;29;20370;-73
2023/10/13 10:31:58;;;;;;;;;;;22.60;99.90;;;;;;4897963;29;19911;-79
2023/10/13 10:34:32;;;;;;;;;;;22.70;99.90;;;;;;4897878;29;20371;-73
2023/10/13 10:36:58;;;;;;;;;;;22.80;99.90;;;;;;4907383;29;19907;-79
2023/10/13 10:39:45;;;;;;;;;;;22.60;99.90;;;;;;4916904;29;20431;-72
2023/10/13 10:42:31;;;;;;;;;;;22.60;99.90;;;;;;4916842;29;19950;-72
2023/10/13 10:45:05;;;;;;;;;;;22.50;99.90;;;;;;4924059;29;20018;-73
2023/10/13 10:47:31;;;;;;;;;;;22.50;99.90;;;;;;4936084;29;19958;-79
2023/10/13 10:50:19;;;;;;;;;;;22.70;99.90;;;;;;4934864;29;19954;-79
2023/10/13 10:52:46;;;;;;;;;;;22.80;99.90;;;;;;4935624;29;19911;-74
2023/10/13 10:55:14;;;;;;;;;;;23.00;99.90;;;;;;4935214;29;19950;-79
2023/10/13 10:57:43;;;;;;;;;;;23.00;99.90;;;;;;4935255;29;20003;-80
2023/10/13 11:00:19;;;;;;;;;;;22.90;99.90;;;;;;4918535;29;19913;-80
2023/10/13 11:02:57;;;;;;;;;;;22.90;99.90;;;;;;4935859;29;19906;-79
2023/10/13 11:05:32;;;;;;;;;;;22.90;99.90;;;;;;4918478;29;19911;-73
2023/10/13 11:07:57;;;;;;;;;;;22.90;99.90;;;;;;4935481;29;19906;-79
2023/10/13 11:10:31;;;;;;;;;;;23.00;99.90;;;;;;4934735;29;19914;-79
2023/10/13 11:13:11;;;;;;;;;;;23.00;99.90;;;;;;4918565;29;19914;-73
2023/10/13 11:15:44;;;;;;;;;;;23.20;99.90;;;;;;4915763;29;19907;-79
2023/10/13 11:18:13;;;;;;;;;;;23.10;99.90;;;;;;4916779;29;19970;-80
2023/10/13 11:20:44;;;;;;;;;;;23.10;99.90;;;;;;4931737;29;20374;-73
2023/10/13 11:23:11;;;;;;;;;;;23.20;99.90;;;;;;4934035;29;19907;-79
2023/10/13 11:25:37;;;;;;;;;;;23.20;99.90;;;;;;4933900;29;19910;-73
2023/10/13 11:28:27;;;;;;;;;;;23.30;99.90;;;;;;4934180;29;19951;-74
2023/10/13 11:30:56;;;;;;;;;;;23.50;99.90;;;;;;4922117;29;20446;-73
2023/10/13 11:33:26;;;;;;;;;;;23.60;99.90;;;;;;4918490;29;19911;-73
2023/10/13 11:38:27;;;;;;;;;;;23.50;99.90;;;;;;4937737;29;19950;-79
2023/10/13 11:48:37;;;;;;;;;;;23.60;99.90;;;;;;4931886;29;19918;-73
2023/10/13 11:51:24;;;;;;;;;;;23.60;99.90;;;;;;4929904;29;19922;-71
2023/10/13 11:53:51;;;;;;;;;;;23.90;99.90;;;;;;4936622;29;19906;-73
2023/10/13 11:56:20;;;;;;;;;;;24.00;99.90;;;;;;4936967;29;19907;-72
2023/10/13 11:58:46;;;;;;;;;;;23.90;99.90;;;;;;4936773;29;19914;-78
2023/10/13 12:09:52;;;;;;;;;;;24.10;99.90;;;;;;4932899;29;19911;-74
2023/10/13 12:11:50;;;;;;;;;;;24.40;99.90;;;;;;4928368;29;20371;-80
2023/10/13 12:14:19;;;;;;;;;;;24.50;99.90;;;;;;4937687;29;20421;-80
2023/10/13 12:16:55;;;;;;;;;;;24.30;99.90;;;;;;4941630;29;19914;-80
2023/10/13 12:19:24;;;;;;;;;;;24.40;99.90;;;;;;4940914;29;19938;-79
2023/10/13 12:21:49;;;;;;;;;;;24.20;99.90;;;;;;4931705;29;20062;-79
2023/10/13 12:26:59;;;;;;;;;;;24.00;99.90;;;;;;4936043;29;19918;-78
2023/10/13 12:29:28;;;;;;;;;;;24.00;99.90;;;;;;4936128;29;19911;-77
2023/10/13 12:32:12;;;;;;;;;;;23.90;99.90;;;;;;4930720;29;19949;-72
2023/10/13 12:53:47;;;;;;;;;;;23.40;99.90;;;;;;4916849;29;19911;-77
2023/10/13 12:56:13;;;;;;;;;;;23.20;99.90;;;;;;4916114;29;20290;-77
2023/10/13 12:58:39;;;;;;;;;;;23.10;99.90;;;;;;4916350;29;19914;-77
2023/10/13 13:01:07;;;;;;;;;;;23.00;99.90;;;;;;4916139;29;19911;-72
2023/10/13 13:03:33;;;;;;;;;;;23.00;99.90;;;;;;4899331;29;19915;-76
2023/10/13 13:05:58;;;;;;;;;;;23.00;99.90;;;;;;4916251;29;19919;-72
2023/10/13 13:08:24;;;;;;;;;;;23.00;99.90;;;;;;4916420;29;19930;-72
2023/10/13 13:10:51;;;;;;;;;;;22.90;99.90;;;;;;4915817;29;19967;-72
2023/10/13 13:13:24;;;;;;;;;;;22.90;99.90;;;;;;4916690;29;19915;-76
2023/10/13 13:15:50;;;;;;;;;;;22.80;99.90;;;;;;4913884;29;19919;-73
2023/10/13 13:18:16;;;;;;;;;;;22.80;99.90;;;;;;4912016;29;20380;-72
2023/10/13 13:20:53;;;;;;;;;;;22.80;99.90;;;;;;4913890;29;19926;-72
2023/10/13 13:23:18;;;;;;;;;;;22.80;99.90;;;;;;4915506;29;19911;-77
2023/10/13 13:25:47;;;;;;;;;;;22.80;99.90;;;;;;4915581;29;20367;-77
2023/10/13 13:28:13;;;;;;;;;;;22.80;99.90;;;;;;4916369;29;19915;-72
2023/10/13 13:30:41;;;;;;;;;;;22.80;99.90;;;;;;4912304;29;20286;-73
2023/10/13 13:33:12;;;;;;;;;;;23.00;99.90;;;;;;4917804;29;19911;-77
2023/10/13 13:35:38;;;;;;;;;;;23.20;99.90;;;;;;4917794;29;19907;-77
2023/10/13 13:38:16;;;;;;;;;;;23.20;99.90;;;;;;4917628;29;20400;-71
2023/10/13 13:40:44;;;;;;;;;;;23.00;99.90;;;;;;4917408;29;20375;-72
2023/10/13 13:43:18;;;;;;;;;;;23.00;99.90;;;;;;4917467;29;19911;-72
2023/10/13 13:45:44;;;;;;;;;;;23.00;99.90;;;;;;4917156;29;20017;-77
2023/10/13 13:48:15;;;;;;;;;;;23.00;99.90;;;;;;4917530;29;19911;-77
2023/10/13 13:50:41;;;;;;;;;;;23.10;99.90;;;;;;4916362;29;20202;-78
2023/10/13 13:53:09;;;;;;;;;;;23.10;99.90;;;;;;4916249;29;19967;-72
2023/10/13 13:55:35;;;;;;;;;;;23.00;99.90;;;;;;4917132;29;19993;-72
2023/10/13 13:58:01;;;;;;;;;;;23.00;99.90;;;;;;4899659;29;20354;-78
2023/10/13 14:00:42;;;;;;;;;;;22.90;99.90;;;;;;4905355;29;20375;-77
2023/10/13 14:03:30;;;;;;;;;;;22.90;99.90;;;;;;4882180;29;19959;-77
2023/10/13 14:05:59;;;;;;;;;;;22.90;99.90;;;;;;4881364;29;19911;-77
2023/10/13 14:08:27;;;;;;;;;;;22.90;99.90;;;;;;4900282;29;19911;-72
2023/10/13 14:13:51;;;;;;;;;;;22.80;99.90;;;;;;4920043;29;19918;-79
2023/10/13 14:16:17;;;;;;;;;;;22.80;99.90;;;;;;4930305;29;19908;-78
2023/10/13 14:18:44;;;;;;;;;;;22.70;99.90;;;;;;4898081;29;20002;-77
2023/10/13 14:21:10;;;;;;;;;;;22.60;99.90;;;;;;4898123;29;19908;-72
2023/10/13 14:23:36;;;;;;;;;;;22.50;99.90;;;;;;4881287;29;20438;-72
2023/10/13 14:26:01;;;;;;;;;;;22.50;99.90;;;;;;4898373;29;20390;-71
2023/10/13 14:28:34;;;;;;;;;;;22.40;99.90;;;;;;4899350;29;19974;-78
2023/10/13 14:31:12;;;;;;;;;;;22.40;99.90;;;;;;4916986;29;20397;-72
2023/10/13 14:33:39;;;;;;;;;;;22.30;99.90;;;;;;4916906;29;19907;-72
2023/10/13 14:36:04;;;;;;;;;;;22.30;99.90;;;;;;4916184;29;19959;-77
2023/10/13 14:38:30;;;;;;;;;;;22.20;99.90;;;;;;4916749;29;19947;-76
2023/10/13 14:40:59;;;;;;;;;;;22.10;99.90;;;;;;4917311;29;19914;-72
2023/10/13 14:43:27;;;;;;;;;;;22.10;99.90;;;;;;4916987;29;19911;-78
2023/10/13 14:45:53;;;;;;;;;;;22.00;99.90;;;;;;4931475;29;19930;-72
2023/10/13 14:48:18;;;;;;;;;;;22.00;99.90;;;;;;4935951;29;20016;-72
2023/10/13 14:50:45;;;;;;;;;;;21.90;99.90;;;;;;4934705;29;20399;-71
2023/10/13 14:53:11;;;;;;;;;;;21.90;99.90;;;;;;4935548;29;19910;-77
2023/10/13 14:55:39;;;;;;;;;;;21.90;99.90;;;;;;4935910;29;20284;-77
2023/10/13 14:58:07;;;;;;;;;;;21.80;99.90;;;;;;4935682;29;19989;-72
2023/10/13 15:00:34;;;;;;;;;;;21.80;99.90;;;;;;4935656;29;20290;-72
2023/10/13 15:03:06;;;;;;;;;;;21.70;99.90;;;;;;4935750;29;19914;-77
2023/10/13 15:05:33;;;;;;;;;;;21.70;99.90;;;;;;4918865;29;20263;-77
2023/10/13 15:07:58;;;;;;;;;;;21.70;99.90;;;;;;4938695;29;19923;-77
2023/10/13 15:10:25;;;;;;;;;;;21.70;99.90;;;;;;4939018;29;19918;-77
2023/10/13 15:12:51;;;;;;;;;;;21.60;99.90;;;;;;4923016;29;19934;-72
2023/10/13 15:15:19;;;;;;;;;;;21.50;99.90;;;;;;4920233;29;19907;-71
2023/10/13 15:17:44;;;;;;;;;;;21.40;99.90;;;;;;4920573;29;20372;-77
2023/10/13 15:20:15;;;;;;;;;;;21.40;99.90;;;;;;4902790;29;19955;-71
2023/10/13 15:22:47;;;;;;;;;;;21.40;99.90;;;;;;4920464;29;20374;-77
2023/10/13 15:25:28;;;;;;;;;;;21.40;99.90;;;;;;4920367;29;19914;-71
2023/10/13 15:28:03;;;;;;;;;;;21.40;99.90;;;;;;4920390;29;19907;-71
2023/10/13 15:30:44;;;;;;;;;;;21.30;99.90;;;;;;4920300;29;19907;-71
2023/10/13 15:33:12;;;;;;;;;;;21.30;99.90;;;;;;4920311;29;19946;-77
2023/10/13 15:35:38;;;;;;;;;;;21.20;99.90;;;;;;4903334;29;19907;-71
2023/10/13 15:38:06;;;;;;;;;;;21.20;99.90;;;;;;4920128;29;20327;-71
2023/10/13 15:40:32;;;;;;;;;;;21.10;99.90;;;;;;4920105;29;19910;-77
2023/10/13 15:42:59;;;;;;;;;;;21.10;99.90;;;;;;4920397;29;19962;-72
2023/10/13 15:45:32;;;;;;;;;;;21.00;99.90;;;;;;4899876;29;20358;-77
2023/10/13 15:47:58;;;;;;;;;;;21.00;99.90;;;;;;4901608;29;20392;-77
2023/10/13 15:50:23;;;;;;;;;;;20.90;99.90;;;;;;4915634;29;20002;-72
2023/10/13 15:52:49;;;;;;;;;;;20.70;99.90;;;;;;4918629;29;19957;-72
2023/10/13 15:55:17;;;;;;;;;;;20.60;99.90;;;;;;4918933;29;19914;-72
2023/10/13 15:57:42;;;;;;;;;;;20.50;99.90;;;;;;4920033;29;19911;-79
2023/10/13 16:00:29;;;;;;;;;;;20.40;99.90;;;;;;4924196;29;20010;-79
2023/10/13 16:02:56;;;;;;;;;;;20.40;99.90;;;;;;4939178;29;20378;-72
2023/10/13 16:05:37;;;;;;;;;;;20.40;99.90;;;;;;4938576;29;19954;-71
2023/10/13 16:08:04;;;;;;;;;;;20.40;99.90;;;;;;4938825;29;19910;-78
2023/10/13 16:10:32;;;;;;;;;;;20.50;99.90;;;;;;4916265;29;19966;-78
2023/10/13 16:12:57;;;;;;;;;;;20.50;99.90;;;;;;4920263;29;19913;-78
2023/10/13 16:15:23;;;;;;;;;;;20.60;99.90;;;;;;4919392;29;19911;-78
2023/10/13 16:17:49;;;;;;;;;;;20.60;99.90;;;;;;4919494;29;19966;-72
2023/10/13 16:20:17;;;;;;;;;;;20.60;99.90;;;;;;4919577;29;20002;-71
2023/10/13 16:22:43;;;;;;;;;;;20.70;99.90;;;;;;4919602;29;20334;-78
2023/10/13 16:25:11;;;;;;;;;;;20.70;99.90;;;;;;4919489;29;19911;-78
2023/10/13 16:27:43;;;;;;;;;;;20.80;99.90;;;;;;4919842;29;20355;-71
2023/10/13 16:30:09;;;;;;;;;;;20.80;99.90;;;;;;4919342;29;19907;-71
2023/10/13 16:32:38;;;;;;;;;;;20.80;99.90;;;;;;4919309;29;19979;-71
2023/10/13 16:35:04;;;;;;;;;;;20.80;99.90;;;;;;4919265;29;19907;-77
2023/10/13 16:37:30;;;;;;;;;;;20.70;99.90;;;;;;4919492;29;19906;-71
2023/10/13 16:40:04;;;;;;;;;;;20.70;99.90;;;;;;4919295;29;20343;-77
2023/10/13 16:42:33;;;;;;;;;;;20.70;99.90;;;;;;4919298;29;19914;-71
2023/10/13 16:45:06;;;;;;;;;;;20.70;99.90;;;;;;4926782;29;20386;-72
2023/10/13 16:47:49;;;;;;;;;;;20.70;99.90;;;;;;4938153;29;19911;-78
2023/10/13 16:50:19;;;;;;;;;;;20.60;99.90;;;;;;4937170;29;19918;-71
2023/10/13 16:52:47;;;;;;;;;;;20.60;99.90;;;;;;4937944;29;19911;-77
2023/10/13 16:55:14;;;;;;;;;;;20.60;99.90;;;;;;4937934;29;19907;-71
2023/10/13 16:57:40;;;;;;;;;;;20.60;99.90;;;;;;4938024;29;20244;-71
2023/10/13 17:00:06;;;;;;;;;;;20.60;99.90;;;;;;4937726;29;19914;-77
2023/10/13 17:02:33;;;;;;;;;;;20.70;99.90;;;;;;4937938;29;19993;-78
2023/10/13 17:04:58;;;;;;;;;;;20.60;99.90;;;;;;4937877;29;19907;-78
2023/10/13 17:07:24;;;;;;;;;;;20.60;99.90;;;;;;4937701;29;19918;-71
2023/10/13 17:09:50;;;;;;;;;;;20.60;99.90;;;;;;4937027;29;19907;-79
2023/10/13 17:12:16;;;;;;;;;;;20.50;99.90;;;;;;4941584;29;20437;-72
2023/10/13 17:14:41;;;;;;;;;;;20.40;99.90;;;;;;4955754;29;19914;-72
2023/10/13 17:17:08;;;;;;;;;;;20.30;99.90;;;;;;4956833;29;19906;-78
2023/10/13 17:19:33;;;;;;;;;;;20.30;99.90;;;;;;4956885;29;20293;-78
2023/10/13 17:21:59;;;;;;;;;;;20.30;99.90;;;;;;4956547;29;19914;-72
2023/10/13 17:24:24;;;;;;;;;;;20.30;99.90;;;;;;4939169;29;20318;-71
2023/10/13 17:26:50;;;;;;;;;;;20.30;99.90;;;;;;4956405;29;20421;-71
2023/10/13 17:29:16;;;;;;;;;;;20.20;99.90;;;;;;4956190;28;20247;-77
2023/10/13 17:31:41;;;;;;;;;;;20.30;99.90;;;;;;4956619;29;20317;-78
2023/10/13 17:34:07;;;;;;;;;;;20.30;99.90;;;;;;4956435;29;19906;-72
2023/10/13 17:36:32;;;;;;;;;;;20.30;99.90;;;;;;4954939;29;19906;-77
2023/10/13 17:38:58;;;;;;;;;;;20.40;99.90;;;;;;4956196;29;19906;-77
2023/10/13 17:41:25;;;;;;;;;;;20.40;99.90;;;;;;4956101;29;19910;-77
2023/10/13 17:43:50;;;;;;;;;;;20.50;99.90;;;;;;4938750;29;19910;-77
2023/10/13 17:46:16;;;;;;;;;;;20.50;99.90;;;;;;4932081;29;20398;-77
2023/10/13 17:48:43;;;;;;;;;;;20.50;99.90;;;;;;4917422;29;19962;-72
2023/10/13 17:51:10;;;;;;;;;;;20.50;99.90;;;;;;4925686;29;20009;-72
2023/10/13 17:53:37;;;;;;;;;;;20.50;99.90;;;;;;4917716;29;19907;-78
2023/10/13 17:56:05;;;;;;;;;;;20.50;99.90;;;;;;4917828;29;20358;-78